sensor_id;sensor_type;location;lat;lon;timestamp;temperature;humidity
15341;DHT22;7770;52.158;5.372;2022-11-11T00:01:45;9.90;99.90
15341;DHT22;7770;52.158;5.372;2022-11-11T00:04:31;9.90;99.90
15341;DHT22;7770;52.158;5.372;2022-11-11T00:07:17;9.90;99.90
15341;DHT22;7770;52.158;5.372;2022-11-11T00:10:03;9.80;99.90
15341;DHT22;7770;52.158;5.372;2022-11-11T00:12:50;9.90;99.90
15341;DHT22;7770;52.158;5.372;2022-11-11T00:15:37;9.90;99.90
15341;DHT22;7770;52.158;5.372;2022-11-11T00:18:23;9.90;99.90
15341;DHT22;7770;52.158;5.372;2022-11-11T00:21:28;9.90;99.90
15341;DHT22;7770;52.158;5.372;2022-11-11T00:24:28;9.90;99.90
15341;DHT22;7770;52.158;5.372;2022-11-11T00:27:34;10.00;99.90
15341;DHT22;7770;52.158;5.372;2022-11-11T00:30:20;10.00;99.90
15341;DHT22;7770;52.158;5.372;2022-11-11T00:33:06;10.00;99.90
15341;DHT22;7770;52.158;5.372;2022-11-11T00:35:55;10.10;99.90
15341;DHT22;7770;52.158;5.372;2022-11-11T00:38:41;10.20;99.90
15341;DHT22;7770;52.158;5.372;2022-11-11T00:41:30;10.20;99.90
15341;DHT22;7770;52.158;5.372;2022-11-11T00:44:16;10.20;99.90
15341;DHT22;7770;52.158;5.372;2022-11-11T00:47:02;10.20;99.90
15341;DHT22;7770;52.158;5.372;2022-11-11T00:50:18;10.30;99.90
15341;DHT22;7770;52.158;5.372;2022-11-11T00:53:29;10.30;99.90
15341;DHT22;7770;52.158;5.372;2022-11-11T00:56:17;10.30;99.90
15341;DHT22;7770;52.158;5.372;2022-11-11T00:59:05;10.30;99.90
15341;DHT22;7770;52.158;5.372;2022-11-11T01:01:51;10.30;99.90
15341;DHT22;7770;52.158;5.372;2022-11-11T01:04:37;10.30;99.90
15341;DHT22;7770;52.158;5.372;2022-11-11T01:07:23;10.30;99.90
15341;DHT22;7770;52.158;5.372;2022-11-11T01:10:10;10.30;99.90
15341;DHT22;7770;52.158;5.372;2022-11-11T01:12:56;10.30;99.90
15341;DHT22;7770;52.158;5.372;2022-11-11T01:16:02;10.40;99.90
15341;DHT22;7770;52.158;5.372;2022-11-11T01:18:50;10.30;99.90
15341;DHT22;7770;52.158;5.372;2022-11-11T01:21:37;10.40;99.90
15341;DHT22;7770;52.158;5.372;2022-11-11T01:24:23;10.40;99.90
15341;DHT22;7770;52.158;5.372;2022-11-11T01:27:09;10.40;99.90
15341;DHT22;7770;52.158;5.372;2022-11-11T01:29:55;10.40;99.90
15341;DHT22;7770;52.158;5.372;2022-11-11T01:32:41;10.50;99.90
15341;DHT22;7770;52.158;5.372;2022-11-11T01:35:27;10.50;99.90
15341;DHT22;7770;52.158;5.372;2022-11-11T01:38:14;10.50;99.90
15341;DHT22;7770;52.158;5.372;2022-11-11T01:41:00;10.50;99.90
15341;DHT22;7770;52.158;5.372;2022-11-11T01:46:59;10.40;99.90
15341;DHT22;7770;52.158;5.372;2022-11-11T01:49:57;10.50;99.90
15341;DHT22;7770;52.158;5.372;2022-11-11T01:52:45;10.50;99.90
15341;DHT22;7770;52.158;5.372;2022-11-11T01:55:31;10.50;99.90
15341;DHT22;7770;52.158;5.372;2022-11-11T01:58:18;10.50;99.90
15341;DHT22;7770;52.158;5.372;2022-11-11T02:01:05;10.50;99.90
15341;DHT22;7770;52.158;5.372;2022-11-11T02:03:54;10.50;99.90
15341;DHT22;7770;52.158;5.372;2022-11-11T02:07:02;10.60;99.90
15341;DHT22;7770;52.158;5.372;2022-11-11T02:09:51;10.50;99.90
15341;DHT22;7770;52.158;5.372;2022-11-11T02:12:37;10.60;99.90
15341;DHT22;7770;52.158;5.372;2022-11-11T02:15:42;10.60;99.90
15341;DHT22;7770;52.158;5.372;2022-11-11T02:18:30;10.50;99.90
15341;DHT22;7770;52.158;5.372;2022-11-11T02:21:31;10.50;99.90
15341;DHT22;7770;52.158;5.372;2022-11-11T02:24:21;10.50;99.90
15341;DHT22;7770;52.158;5.372;2022-11-11T02:27:11;10.50;99.90
15341;DHT22;7770;52.158;5.372;2022-11-11T02:30:01;10.50;99.90
15341;DHT22;7770;52.158;5.372;2022-11-11T02:32:52;10.50;99.90
15341;DHT22;7770;52.158;5.372;2022-11-11T02:35:45;10.50;99.90
15341;DHT22;7770;52.158;5.372;2022-11-11T02:38:43;10.50;99.90
15341;DHT22;7770;52.158;5.372;2022-11-11T02:41:29;10.50;99.90
15341;DHT22;7770;52.158;5.372;2022-11-11T02:44:34;10.50;99.90
15341;DHT22;7770;52.158;5.372;2022-11-11T02:47:22;10.50;99.90
15341;DHT22;7770;52.158;5.372;2022-11-11T02:50:08;10.50;99.90
15341;DHT22;7770;52.158;5.372;2022-11-11T02:52:54;10.40;99.90
15341;DHT22;7770;52.158;5.372;2022-11-11T02:55:40;10.40;99.90
15341;DHT22;7770;52.158;5.372;2022-11-11T02:58:26;10.40;99.90
15341;DHT22;7770;52.158;5.372;2022-11-11T03:01:12;10.30;99.90
15341;DHT22;7770;52.158;5.372;2022-11-11T03:04:04;10.30;99.90
15341;DHT22;7770;52.158;5.372;2022-11-11T03:06:50;10.30;99.90
15341;DHT22;7770;52.158;5.372;2022-11-11T03:09:36;10.30;99.90
15341;DHT22;7770;52.158;5.372;2022-11-11T03:12:22;10.30;99.90
15341;DHT22;7770;52.158;5.372;2022-11-11T03:15:09;10.20;99.90
15341;DHT22;7770;52.158;5.372;2022-11-11T03:17:55;10.20;99.90
15341;DHT22;7770;52.158;5.372;2022-11-11T03:20:41;10.20;99.90
15341;DHT22;7770;52.158;5.372;2022-11-11T03:23:45;10.20;99.90
15341;DHT22;7770;52.158;5.372;2022-11-11T03:26:31;10.20;99.90
15341;DHT22;7770;52.158;5.372;2022-11-11T03:29:17;10.30;99.90
15341;DHT22;7770;52.158;5.372;2022-11-11T03:32:05;10.30;99.90
15341;DHT22;7770;52.158;5.372;2022-11-11T03:34:52;10.30;99.90
15341;DHT22;7770;52.158;5.372;2022-11-11T03:37:38;10.30;99.90
15341;DHT22;7770;52.158;5.372;2022-11-11T03:40:43;10.30;99.90
15341;DHT22;7770;52.158;5.372;2022-11-11T03:43:32;10.30;99.90
15341;DHT22;7770;52.158;5.372;2022-11-11T03:46:20;10.20;99.90
15341;DHT22;7770;52.158;5.372;2022-11-11T03:49:06;10.20;99.90
15341;DHT22;7770;52.158;5.372;2022-11-11T03:51:52;10.20;99.90
15341;DHT22;7770;52.158;5.372;2022-11-11T03:54:38;10.10;99.90
15341;DHT22;7770;52.158;5.372;2022-11-11T03:57:24;10.20;99.90
15341;DHT22;7770;52.158;5.372;2022-11-11T04:00:20;10.20;99.90
15341;DHT22;7770;52.158;5.372;2022-11-11T04:03:16;10.20;99.90
15341;DHT22;7770;52.158;5.372;2022-11-11T04:06:22;10.10;99.90
15341;DHT22;7770;52.158;5.372;2022-11-11T04:09:26;10.20;99.90
15341;DHT22;7770;52.158;5.372;2022-11-11T04:12:31;10.20;99.90
15341;DHT22;7770;52.158;5.372;2022-11-11T04:15:37;10.20;99.90
15341;DHT22;7770;52.158;5.372;2022-11-11T04:18:42;10.10;99.90
15341;DHT22;7770;52.158;5.372;2022-11-11T04:21:47;10.10;99.90
15341;DHT22;7770;52.158;5.372;2022-11-11T04:24:33;10.10;99.90
15341;DHT22;7770;52.158;5.372;2022-11-11T04:27:38;10.10;99.90
15341;DHT22;7770;52.158;5.372;2022-11-11T04:30:24;10.10;99.90
15341;DHT22;7770;52.158;5.372;2022-11-11T04:33:10;10.10;99.90
15341;DHT22;7770;52.158;5.372;2022-11-11T04:35:56;10.10;99.90
15341;DHT22;7770;52.158;5.372;2022-11-11T04:38:42;10.10;99.90
15341;DHT22;7770;52.158;5.372;2022-11-11T04:41:47;10.10;99.90
15341;DHT22;7770;52.158;5.372;2022-11-11T04:44:33;10.00;99.90
15341;DHT22;7770;52.158;5.372;2022-11-11T04:47:37;9.90;99.90
15341;DHT22;7770;52.158;5.372;2022-11-11T04:50:25;9.90;99.90
15341;DHT22;7770;52.158;5.372;2022-11-11T04:53:14;9.80;99.90
15341;DHT22;7770;52.158;5.372;2022-11-11T04:56:00;9.70;99.90
15341;DHT22;7770;52.158;5.372;2022-11-11T04:59:05;9.70;99.90
15341;DHT22;7770;52.158;5.372;2022-11-11T05:02:11;9.60;99.90
15341;DHT22;7770;52.158;5.372;2022-11-11T05:05:15;9.60;99.90
15341;DHT22;7770;52.158;5.372;2022-11-11T05:08:01;9.60;99.90
15341;DHT22;7770;52.158;5.372;2022-11-11T05:11:06;9.60;99.90
15341;DHT22;7770;52.158;5.372;2022-11-11T05:13:53;9.70;99.90
15341;DHT22;7770;52.158;5.372;2022-11-11T05:16:59;9.70;99.90
15341;DHT22;7770;52.158;5.372;2022-11-11T05:20:04;9.70;99.90
15341;DHT22;7770;52.158;5.372;2022-11-11T05:23:08;9.70;99.90
15341;DHT22;7770;52.158;5.372;2022-11-11T05:25:54;9.70;99.90
15341;DHT22;7770;52.158;5.372;2022-11-11T05:28:40;9.80;99.90
15341;DHT22;7770;52.158;5.372;2022-11-11T05:31:28;9.70;99.90
15341;DHT22;7770;52.158;5.372;2022-11-11T05:34:14;9.70;99.90
15341;DHT22;7770;52.158;5.372;2022-11-11T05:37:00;9.70;99.90
15341;DHT22;7770;52.158;5.372;2022-11-11T05:39:46;9.60;99.90
15341;DHT22;7770;52.158;5.372;2022-11-11T05:42:33;9.60;99.90
15341;DHT22;7770;52.158;5.372;2022-11-11T05:45:19;9.60;99.90
15341;DHT22;7770;52.158;5.372;2022-11-11T05:48:05;9.60;99.90
15341;DHT22;7770;52.158;5.372;2022-11-11T05:50:51;9.60;99.90
15341;DHT22;7770;52.158;5.372;2022-11-11T05:53:37;9.50;99.90
15341;DHT22;7770;52.158;5.372;2022-11-11T05:56:23;9.50;99.90
15341;DHT22;7770;52.158;5.372;2022-11-11T05:59:09;9.40;99.90
15341;DHT22;7770;52.158;5.372;2022-11-11T06:01:55;9.40;99.90
15341;DHT22;7770;52.158;5.372;2022-11-11T06:04:41;9.40;99.90
15341;DHT22;7770;52.158;5.372;2022-11-11T06:07:27;9.40;99.90
15341;DHT22;7770;52.158;5.372;2022-11-11T06:10:13;9.40;99.90
15341;DHT22;7770;52.158;5.372;2022-11-11T06:13:15;9.40;99.90
15341;DHT22;7770;52.158;5.372;2022-11-11T06:16:01;9.30;99.90
15341;DHT22;7770;52.158;5.372;2022-11-11T06:18:49;9.20;99.90
15341;DHT22;7770;52.158;5.372;2022-11-11T06:21:35;9.20;99.90
15341;DHT22;7770;52.158;5.372;2022-11-11T06:24:41;9.20;99.90
15341;DHT22;7770;52.158;5.372;2022-11-11T06:27:27;9.20;99.90
15341;DHT22;7770;52.158;5.372;2022-11-11T06:30:13;9.30;99.90
15341;DHT22;7770;52.158;5.372;2022-11-11T06:32:59;9.30;99.90
15341;DHT22;7770;52.158;5.372;2022-11-11T06:35:46;9.30;99.90
15341;DHT22;7770;52.158;5.372;2022-11-11T06:38:32;9.40;99.90
15341;DHT22;7770;52.158;5.372;2022-11-11T06:41:19;9.40;99.90
15341;DHT22;7770;52.158;5.372;2022-11-11T06:44:05;9.50;99.90
15341;DHT22;7770;52.158;5.372;2022-11-11T06:46:51;9.50;99.90
15341;DHT22;7770;52.158;5.372;2022-11-11T06:49:37;9.50;99.90
15341;DHT22;7770;52.158;5.372;2022-11-11T06:52:23;9.60;99.90
15341;DHT22;7770;52.158;5.372;2022-11-11T06:55:09;9.60;99.90
15341;DHT22;7770;52.158;5.372;2022-11-11T06:58:03;9.60;99.90
15341;DHT22;7770;52.158;5.372;2022-11-11T07:00:53;9.60;99.90
15341;DHT22;7770;52.158;5.372;2022-11-11T07:03:39;9.60;99.90
15341;DHT22;7770;52.158;5.372;2022-11-11T07:06:25;9.60;99.90
15341;DHT22;7770;52.158;5.372;2022-11-11T07:09:11;9.60;99.90
15341;DHT22;7770;52.158;5.372;2022-11-11T07:11:57;9.60;99.90
15341;DHT22;7770;52.158;5.372;2022-11-11T07:14:44;9.60;99.90
15341;DHT22;7770;52.158;5.372;2022-11-11T07:17:30;9.70;99.90
15341;DHT22;7770;52.158;5.372;2022-11-11T07:20:16;9.70;99.90
15341;DHT22;7770;52.158;5.372;2022-11-11T07:23:03;9.70;99.90
15341;DHT22;7770;52.158;5.372;2022-11-11T07:25:49;9.70;99.90
15341;DHT22;7770;52.158;5.372;2022-11-11T07:28:35;9.70;99.90
15341;DHT22;7770;52.158;5.372;2022-11-11T07:31:21;9.70;99.90
15341;DHT22;7770;52.158;5.372;2022-11-11T07:34:08;9.70;99.90
15341;DHT22;7770;52.158;5.372;2022-11-11T07:36:54;9.70;99.90
15341;DHT22;7770;52.158;5.372;2022-11-11T07:39:40;9.80;99.90
15341;DHT22;7770;52.158;5.372;2022-11-11T07:42:26;9.80;99.90
15341;DHT22;7770;52.158;5.372;2022-11-11T07:45:12;9.80;99.90
15341;DHT22;7770;52.158;5.372;2022-11-11T07:47:59;9.80;99.90
15341;DHT22;7770;52.158;5.372;2022-11-11T07:50:45;9.80;99.90
15341;DHT22;7770;52.158;5.372;2022-11-11T07:53:31;9.80;99.90
15341;DHT22;7770;52.158;5.372;2022-11-11T07:56:17;9.80;99.90
15341;DHT22;7770;52.158;5.372;2022-11-11T07:59:03;9.70;99.90
15341;DHT22;7770;52.158;5.372;2022-11-11T08:01:49;9.80;99.90
15341;DHT22;7770;52.158;5.372;2022-11-11T08:04:35;9.70;99.90
15341;DHT22;7770;52.158;5.372;2022-11-11T08:07:21;9.80;99.90
15341;DHT22;7770;52.158;5.372;2022-11-11T08:10:09;9.80;99.90
15341;DHT22;7770;52.158;5.372;2022-11-11T08:12:56;9.90;99.90
15341;DHT22;7770;52.158;5.372;2022-11-11T08:16:00;9.90;99.90
15341;DHT22;7770;52.158;5.372;2022-11-11T08:18:48;9.90;99.90
15341;DHT22;7770;52.158;5.372;2022-11-11T08:21:34;10.00;99.90
15341;DHT22;7770;52.158;5.372;2022-11-11T08:24:21;10.10;99.90
15341;DHT22;7770;52.158;5.372;2022-11-11T08:27:07;10.00;99.90
15341;DHT22;7770;52.158;5.372;2022-11-11T08:29:54;10.00;99.90
15341;DHT22;7770;52.158;5.372;2022-11-11T08:32:40;10.00;99.90
15341;DHT22;7770;52.158;5.372;2022-11-11T08:35:27;10.10;99.90
15341;DHT22;7770;52.158;5.372;2022-11-11T08:38:13;10.10;99.90
15341;DHT22;7770;52.158;5.372;2022-11-11T08:41:04;10.10;99.90
15341;DHT22;7770;52.158;5.372;2022-11-11T08:43:52;10.10;99.90
15341;DHT22;7770;52.158;5.372;2022-11-11T08:46:41;10.00;99.90
15341;DHT22;7770;52.158;5.372;2022-11-11T08:49:27;10.10;99.90
15341;DHT22;7770;52.158;5.372;2022-11-11T08:52:13;10.20;99.90
15341;DHT22;7770;52.158;5.372;2022-11-11T08:55:00;10.20;99.90
15341;DHT22;7770;52.158;5.372;2022-11-11T08:57:46;10.10;99.90
15341;DHT22;7770;52.158;5.372;2022-11-11T09:00:33;10.20;99.90
15341;DHT22;7770;52.158;5.372;2022-11-11T09:03:19;10.30;99.90
15341;DHT22;7770;52.158;5.372;2022-11-11T09:06:05;10.30;99.90
15341;DHT22;7770;52.158;5.372;2022-11-11T09:08:51;10.30;99.90
15341;DHT22;7770;52.158;5.372;2022-11-11T09:11:37;10.40;99.90
15341;DHT22;7770;52.158;5.372;2022-11-11T09:14:23;10.30;99.90
15341;DHT22;7770;52.158;5.372;2022-11-11T09:17:09;10.30;99.90
15341;DHT22;7770;52.158;5.372;2022-11-11T09:19:55;10.60;99.90
15341;DHT22;7770;52.158;5.372;2022-11-11T09:22:46;10.50;99.90
15341;DHT22;7770;52.158;5.372;2022-11-11T09:25:32;10.50;99.90
15341;DHT22;7770;52.158;5.372;2022-11-11T09:28:19;10.50;99.90
15341;DHT22;7770;52.158;5.372;2022-11-11T09:31:05;10.50;99.90
15341;DHT22;7770;52.158;5.372;2022-11-11T09:33:51;10.60;99.90
15341;DHT22;7770;52.158;5.372;2022-11-11T09:36:37;10.70;99.90
15341;DHT22;7770;52.158;5.372;2022-11-11T09:39:23;10.90;99.90
15341;DHT22;7770;52.158;5.372;2022-11-11T09:42:18;10.80;99.90
15341;DHT22;7770;52.158;5.372;2022-11-11T09:52:57;10.80;99.90
15341;DHT22;7770;52.158;5.372;2022-11-11T09:55:51;11.30;99.90
15341;DHT22;7770;52.158;5.372;2022-11-11T09:58:52;11.50;99.90
15341;DHT22;7770;52.158;5.372;2022-11-11T10:01:45;11.70;99.90
15341;DHT22;7770;52.158;5.372;2022-11-11T10:07:50;11.70;99.90
15341;DHT22;7770;52.158;5.372;2022-11-11T10:13:36;12.20;99.90
15341;DHT22;7770;52.158;5.372;2022-11-11T10:16:39;12.10;99.90
15341;DHT22;7770;52.158;5.372;2022-11-11T10:23:02;12.20;99.90
15341;DHT22;7770;52.158;5.372;2022-11-11T10:25:55;12.30;99.90
15341;DHT22;7770;52.158;5.372;2022-11-11T10:28:42;13.00;99.90
15341;DHT22;7770;52.158;5.372;2022-11-11T10:31:32;12.80;99.90
15341;DHT22;7770;52.158;5.372;2022-11-11T10:34:20;12.90;99.90
15341;DHT22;7770;52.158;5.372;2022-11-11T10:40:33;13.30;99.90
15341;DHT22;7770;52.158;5.372;2022-11-11T10:43:27;13.00;99.90
15341;DHT22;7770;52.158;5.372;2022-11-11T10:46:23;13.60;99.90
15341;DHT22;7770;52.158;5.372;2022-11-11T10:49:18;14.10;99.90
15341;DHT22;7770;52.158;5.372;2022-11-11T10:52:17;14.10;99.90
15341;DHT22;7770;52.158;5.372;2022-11-11T10:55:08;13.90;99.90
15341;DHT22;7770;52.158;5.372;2022-11-11T11:01:16;13.50;99.90
15341;DHT22;7770;52.158;5.372;2022-11-11T11:04:36;13.80;99.90
15341;DHT22;7770;52.158;5.372;2022-11-11T11:07:49;14.60;99.90
15341;DHT22;7770;52.158;5.372;2022-11-11T11:10:46;14.50;99.90
15341;DHT22;7770;52.158;5.372;2022-11-11T11:13:45;13.70;99.90
15341;DHT22;7770;52.158;5.372;2022-11-11T11:16:37;13.70;99.90
15341;DHT22;7770;52.158;5.372;2022-11-11T11:19:29;13.90;99.90
15341;DHT22;7770;52.158;5.372;2022-11-11T11:22:15;14.10;99.90
15341;DHT22;7770;52.158;5.372;2022-11-11T11:25:09;14.60;99.90
15341;DHT22;7770;52.158;5.372;2022-11-11T11:28:11;14.00;99.90
15341;DHT22;7770;52.158;5.372;2022-11-11T11:31:01;14.40;99.90
15341;DHT22;7770;52.158;5.372;2022-11-11T11:33:51;15.10;99.90
15341;DHT22;7770;52.158;5.372;2022-11-11T11:36:38;15.10;99.90
15341;DHT22;7770;52.158;5.372;2022-11-11T11:39:36;14.60;99.90
15341;DHT22;7770;52.158;5.372;2022-11-11T11:42:39;14.70;99.90
15341;DHT22;7770;52.158;5.372;2022-11-11T11:45:25;15.10;99.90
15341;DHT22;7770;52.158;5.372;2022-11-11T11:51:51;14.90;99.90
15341;DHT22;7770;52.158;5.372;2022-11-11T11:55:13;15.90;99.90
15341;DHT22;7770;52.158;5.372;2022-11-11T12:01:39;16.10;99.90
15341;DHT22;7770;52.158;5.372;2022-11-11T12:11:32;15.00;99.90
15341;DHT22;7770;52.158;5.372;2022-11-11T12:14:45;15.10;99.90
15341;DHT22;7770;52.158;5.372;2022-11-11T12:28:14;13.50;99.90
15341;DHT22;7770;52.158;5.372;2022-11-11T12:31:34;13.10;99.90
15341;DHT22;7770;52.158;5.372;2022-11-11T12:34:49;13.20;99.90
15341;DHT22;7770;52.158;5.372;2022-11-11T12:38:12;13.30;99.90
15341;DHT22;7770;52.158;5.372;2022-11-11T12:44:07;13.50;99.90
15341;DHT22;7770;52.158;5.372;2022-11-11T12:47:15;13.50;99.90
15341;DHT22;7770;52.158;5.372;2022-11-11T12:50:18;13.70;99.90
15341;DHT22;7770;52.158;5.372;2022-11-11T12:53:36;13.60;99.90
15341;DHT22;7770;52.158;5.372;2022-11-11T13:00:11;13.30;99.90
15341;DHT22;7770;52.158;5.372;2022-11-11T13:03:30;13.10;99.90
15341;DHT22;7770;52.158;5.372;2022-11-11T13:06:35;13.10;99.90
15341;DHT22;7770;52.158;5.372;2022-11-11T13:13:55;13.10;99.90
15341;DHT22;7770;52.158;5.372;2022-11-11T13:16:09;12.90;99.90
15341;DHT22;7770;52.158;5.372;2022-11-11T13:19:20;12.80;99.90
15341;DHT22;7770;52.158;5.372;2022-11-11T13:22:29;12.90;99.90
15341;DHT22;7770;52.158;5.372;2022-11-11T13:25:23;12.80;99.90
15341;DHT22;7770;52.158;5.372;2022-11-11T13:28:33;12.90;99.90
15341;DHT22;7770;52.158;5.372;2022-11-11T13:31:36;13.00;99.90
15341;DHT22;7770;52.158;5.372;2022-11-11T13:34:26;12.90;99.90
15341;DHT22;7770;52.158;5.372;2022-11-11T13:37:26;12.90;99.90
15341;DHT22;7770;52.158;5.372;2022-11-11T13:40:36;12.90;99.90
15341;DHT22;7770;52.158;5.372;2022-11-11T13:43:32;13.00;99.90
15341;DHT22;7770;52.158;5.372;2022-11-11T13:49:23;13.00;99.90
15341;DHT22;7770;52.158;5.372;2022-11-11T13:52:23;13.00;99.90
15341;DHT22;7770;52.158;5.372;2022-11-11T13:58:33;12.90;99.90
15341;DHT22;7770;52.158;5.372;2022-11-11T14:01:22;12.80;99.90
15341;DHT22;7770;52.158;5.372;2022-11-11T14:04:09;12.90;99.90
15341;DHT22;7770;52.158;5.372;2022-11-11T14:06:56;12.90;99.90
15341;DHT22;7770;52.158;5.372;2022-11-11T14:09:59;12.80;99.90
15341;DHT22;7770;52.158;5.372;2022-11-11T14:12:55;12.80;99.90
15341;DHT22;7770;52.158;5.372;2022-11-11T14:15:43;12.80;99.90
15341;DHT22;7770;52.158;5.372;2022-11-11T14:18:36;12.70;99.90
15341;DHT22;7770;52.158;5.372;2022-11-11T14:21:44;12.70;99.90
15341;DHT22;7770;52.158;5.372;2022-11-11T14:24:37;12.80;99.90
15341;DHT22;7770;52.158;5.372;2022-11-11T14:27:28;12.70;99.90
15341;DHT22;7770;52.158;5.372;2022-11-11T14:30:37;12.70;99.90
15341;DHT22;7770;52.158;5.372;2022-11-11T14:36:48;12.70;99.90
15341;DHT22;7770;52.158;5.372;2022-11-11T14:39:43;12.60;99.90
15341;DHT22;7770;52.158;5.372;2022-11-11T14:48:50;12.50;99.90
15341;DHT22;7770;52.158;5.372;2022-11-11T14:51:46;12.50;99.90
15341;DHT22;7770;52.158;5.372;2022-11-11T15:00:49;12.40;99.90
15341;DHT22;7770;52.158;5.372;2022-11-11T15:06:42;12.20;99.90
15341;DHT22;7770;52.158;5.372;2022-11-11T15:12:51;12.00;99.90
15341;DHT22;7770;52.158;5.372;2022-11-11T15:18:57;11.90;99.90
15341;DHT22;7770;52.158;5.372;2022-11-11T15:22:19;11.80;99.90
15341;DHT22;7770;52.158;5.372;2022-11-11T15:34:58;11.50;99.90
15341;DHT22;7770;52.158;5.372;2022-11-11T15:37:52;11.40;99.90
15341;DHT22;7770;52.158;5.372;2022-11-11T15:40:48;11.30;99.90
15341;DHT22;7770;52.158;5.372;2022-11-11T15:43:38;11.20;99.90
15341;DHT22;7770;52.158;5.372;2022-11-11T15:46:35;11.10;99.90
15341;DHT22;7770;52.158;5.372;2022-11-11T15:49:42;11.10;99.90
15341;DHT22;7770;52.158;5.372;2022-11-11T15:52:34;11.10;99.90
15341;DHT22;7770;52.158;5.372;2022-11-11T15:55:24;11.10;99.90
15341;DHT22;7770;52.158;5.372;2022-11-11T15:58:16;11.00;99.90
15341;DHT22;7770;52.158;5.372;2022-11-11T16:01:09;11.00;99.90
15341;DHT22;7770;52.158;5.372;2022-11-11T16:03:57;10.90;99.90
15341;DHT22;7770;52.158;5.372;2022-11-11T16:06:43;10.80;99.90
15341;DHT22;7770;52.158;5.372;2022-11-11T16:09:30;10.80;99.90
15341;DHT22;7770;52.158;5.372;2022-11-11T16:12:27;10.70;99.90
15341;DHT22;7770;52.158;5.372;2022-11-11T16:15:44;10.60;99.90
15341;DHT22;7770;52.158;5.372;2022-11-11T16:18:44;10.60;99.90
15341;DHT22;7770;52.158;5.372;2022-11-11T16:22:08;10.50;99.90
15341;DHT22;7770;52.158;5.372;2022-11-11T16:24:57;10.40;99.90
15341;DHT22;7770;52.158;5.372;2022-11-11T16:27:43;10.30;99.90
15341;DHT22;7770;52.158;5.372;2022-11-11T16:30:33;10.40;99.90
15341;DHT22;7770;52.158;5.372;2022-11-11T16:36:12;10.30;99.90
15341;DHT22;7770;52.158;5.372;2022-11-11T16:39:26;10.30;99.90
15341;DHT22;7770;52.158;5.372;2022-11-11T16:42:19;10.30;99.90
15341;DHT22;7770;52.158;5.372;2022-11-11T16:45:20;10.30;99.90
15341;DHT22;7770;52.158;5.372;2022-11-11T16:51:23;10.30;99.90
15341;DHT22;7770;52.158;5.372;2022-11-11T16:54:27;10.30;99.90
15341;DHT22;7770;52.158;5.372;2022-11-11T16:57:21;10.20;99.90
15341;DHT22;7770;52.158;5.372;2022-11-11T17:00:20;10.20;99.90
15341;DHT22;7770;52.158;5.372;2022-11-11T17:03:17;10.10;99.90
15341;DHT22;7770;52.158;5.372;2022-11-11T17:06:06;10.10;99.90
15341;DHT22;7770;52.158;5.372;2022-11-11T17:08:54;10.10;99.90
15341;DHT22;7770;52.158;5.372;2022-11-11T17:14:27;10.00;99.90
15341;DHT22;7770;52.158;5.372;2022-11-11T17:17:15;10.00;99.90
15341;DHT22;7770;52.158;5.372;2022-11-11T17:20:13;10.00;99.90
15341;DHT22;7770;52.158;5.372;2022-11-11T17:23:01;10.00;99.90
15341;DHT22;7770;52.158;5.372;2022-11-11T17:25:55;10.00;99.90
15341;DHT22;7770;52.158;5.372;2022-11-11T17:28:42;9.90;99.90
15341;DHT22;7770;52.158;5.372;2022-11-11T17:31:28;9.80;99.90
15341;DHT22;7770;52.158;5.372;2022-11-11T17:34:14;9.80;99.90
15341;DHT22;7770;52.158;5.372;2022-11-11T17:37:00;9.80;99.90
15341;DHT22;7770;52.158;5.372;2022-11-11T17:39:46;9.80;99.90
15341;DHT22;7770;52.158;5.372;2022-11-11T17:42:33;9.80;99.90
15341;DHT22;7770;52.158;5.372;2022-11-11T17:45:19;9.70;99.90
15341;DHT22;7770;52.158;5.372;2022-11-11T17:48:06;9.70;99.90
15341;DHT22;7770;52.158;5.372;2022-11-11T17:50:52;9.80;99.90
15341;DHT22;7770;52.158;5.372;2022-11-11T17:53:38;9.60;99.90
15341;DHT22;7770;52.158;5.372;2022-11-11T17:56:25;9.60;99.90
15341;DHT22;7770;52.158;5.372;2022-11-11T17:59:14;9.50;99.90
15341;DHT22;7770;52.158;5.372;2022-11-11T18:02:00;9.50;99.90
15341;DHT22;7770;52.158;5.372;2022-11-11T18:04:47;9.40;99.90
15341;DHT22;7770;52.158;5.372;2022-11-11T18:07:33;9.40;99.90
15341;DHT22;7770;52.158;5.372;2022-11-11T18:10:19;9.40;99.90
15341;DHT22;7770;52.158;5.372;2022-11-11T18:13:05;9.50;99.90
15341;DHT22;7770;52.158;5.372;2022-11-11T18:15:51;9.50;99.90
15341;DHT22;7770;52.158;5.372;2022-11-11T18:18:38;9.40;99.90
15341;DHT22;7770;52.158;5.372;2022-11-11T18:21:27;9.40;99.90
15341;DHT22;7770;52.158;5.372;2022-11-11T18:24:14;9.50;99.90
15341;DHT22;7770;52.158;5.372;2022-11-11T18:26:59;9.40;99.90
15341;DHT22;7770;52.158;5.372;2022-11-11T18:29:45;9.40;99.90
15341;DHT22;7770;52.158;5.372;2022-11-11T18:32:31;9.30;99.90
15341;DHT22;7770;52.158;5.372;2022-11-11T18:35:17;9.30;99.90
15341;DHT22;7770;52.158;5.372;2022-11-11T18:38:03;9.30;99.90
15341;DHT22;7770;52.158;5.372;2022-11-11T18:40:49;9.30;99.90
15341;DHT22;7770;52.158;5.372;2022-11-11T18:43:38;9.30;99.90
15341;DHT22;7770;52.158;5.372;2022-11-11T18:46:30;9.30;99.90
15341;DHT22;7770;52.158;5.372;2022-11-11T18:49:16;9.30;99.90
15341;DHT22;7770;52.158;5.372;2022-11-11T18:52:03;9.30;99.90
15341;DHT22;7770;52.158;5.372;2022-11-11T18:54:49;9.20;99.90
15341;DHT22;7770;52.158;5.372;2022-11-11T18:57:35;9.30;99.90
15341;DHT22;7770;52.158;5.372;2022-11-11T19:00:21;9.30;99.90
15341;DHT22;7770;52.158;5.372;2022-11-11T19:03:07;9.30;99.90
15341;DHT22;7770;52.158;5.372;2022-11-11T19:05:53;9.20;99.90
15341;DHT22;7770;52.158;5.372;2022-11-11T19:08:44;9.20;99.90
15341;DHT22;7770;52.158;5.372;2022-11-11T19:11:32;9.20;99.90
15341;DHT22;7770;52.158;5.372;2022-11-11T19:14:20;9.20;99.90
15341;DHT22;7770;52.158;5.372;2022-11-11T19:17:06;9.20;99.90
15341;DHT22;7770;52.158;5.372;2022-11-11T19:19:54;9.20;99.90
15341;DHT22;7770;52.158;5.372;2022-11-11T19:22:40;9.30;99.90
15341;DHT22;7770;52.158;5.372;2022-11-11T19:25:26;9.20;99.90
15341;DHT22;7770;52.158;5.372;2022-11-11T19:28:12;9.20;99.90
15341;DHT22;7770;52.158;5.372;2022-11-11T19:31:12;9.10;99.90
15341;DHT22;7770;52.158;5.372;2022-11-11T19:33:59;9.10;99.90
15341;DHT22;7770;52.158;5.372;2022-11-11T19:36:46;9.00;99.90
15341;DHT22;7770;52.158;5.372;2022-11-11T19:39:32;9.00;99.90
15341;DHT22;7770;52.158;5.372;2022-11-11T19:42:18;9.20;99.90
15341;DHT22;7770;52.158;5.372;2022-11-11T19:45:04;9.30;99.90
15341;DHT22;7770;52.158;5.372;2022-11-11T19:47:50;9.30;99.90
15341;DHT22;7770;52.158;5.372;2022-11-11T19:50:37;9.30;99.90
15341;DHT22;7770;52.158;5.372;2022-11-11T19:53:23;9.30;99.90
15341;DHT22;7770;52.158;5.372;2022-11-11T19:56:14;9.30;99.90
15341;DHT22;7770;52.158;5.372;2022-11-11T19:59:02;9.40;99.90
15341;DHT22;7770;52.158;5.372;2022-11-11T20:01:48;9.40;99.90
15341;DHT22;7770;52.158;5.372;2022-11-11T20:04:35;9.30;99.90
15341;DHT22;7770;52.158;5.372;2022-11-11T20:07:21;9.30;99.90
15341;DHT22;7770;52.158;5.372;2022-11-11T20:10:07;9.30;99.90
15341;DHT22;7770;52.158;5.372;2022-11-11T20:12:53;9.50;99.90
15341;DHT22;7770;52.158;5.372;2022-11-11T20:15:39;9.60;99.90
15341;DHT22;7770;52.158;5.372;2022-11-11T20:18:25;9.60;99.90
15341;DHT22;7770;52.158;5.372;2022-11-11T20:21:11;9.50;99.90